Time;durP1;ratioP1;P1;durP2;ratioP2;P2;SDS_P1;SDS_P2;PMS_P1;PMS_P2;Temp;Humidity;BMP_temperature;BMP_pressure;BME280_temperature;BME280_humidity;BME280_pressure;Samples;Min_cycle;Max_cycle;Signal;HPM_P1;HPM_P2
2022/07/06 00:01:31;;;;;;;15.68;4.35;;;;;;;11.46;77.44;102409.72;5066537;28;20524;-77
2022/07/06 00:03:57;;;;;;;10.48;4.00;;;;;;;11.48;77.49;102409.63;5067676;28;20169;-77
2022/07/06 00:06:23;;;;;;;12.00;4.40;;;;;;;11.44;77.71;102405.41;5069010;28;20464;-77
2022/07/06 00:08:49;;;;;;;12.63;4.20;;;;;;;11.46;77.87;102406.16;5068728;28;20032;-77
2022/07/06 00:11:15;;;;;;;13.73;4.65;;;;;;;11.46;78.15;102398.94;5060605;28;20048;-76
2022/07/06 00:13:40;;;;;;;16.40;5.05;;;;;;;11.49;78.17;102401.50;5071436;28;20466;-76
2022/07/06 00:16:06;;;;;;;15.70;4.72;;;;;;;11.49;77.93;102404.22;5071985;28;20418;-76
2022/07/06 00:18:31;;;;;;;11.63;3.85;;;;;;;11.48;78.14;102407.84;5055290;28;20052;-77
2022/07/06 00:20:57;;;;;;;13.68;4.68;;;;;;;11.42;78.20;102408.16;5072419;28;20568;-77
2022/07/06 00:23:22;;;;;;;13.90;4.80;;;;;;;11.44;78.33;102408.94;5068339;28;20032;-77
2022/07/06 00:25:48;;;;;;;14.75;4.53;;;;;;;11.42;78.08;102410.84;5070556;28;20468;-77
2022/07/06 00:28:13;;;;;;;16.92;5.55;;;;;;;11.41;78.32;102416.31;5078247;28;20082;-77
2022/07/06 00:30:39;;;;;;;14.32;4.55;;;;;;;11.34;78.10;102408.53;5067770;28;20151;-77
2022/07/06 00:33:04;;;;;;;15.07;4.80;;;;;;;11.36;78.29;102405.75;5069073;28;20035;-76
2022/07/06 00:35:29;;;;;;;13.75;4.30;;;;;;;11.34;78.39;102413.06;5071959;28;20021;-76
2022/07/06 00:37:54;;;;;;;16.80;4.90;;;;;;;11.29;78.32;102409.72;5069597;28;20081;-76
2022/07/06 00:40:20;;;;;;;15.73;4.90;;;;;;;11.31;78.69;102410.53;5071459;28;20166;-76
2022/07/06 00:42:47;;;;;;;15.15;4.43;;;;;;;11.28;78.23;102411.56;5070473;28;20387;-76
2022/07/06 00:45:14;;;;;;;11.70;4.18;;;;;;;11.29;78.29;102415.09;5066771;28;20521;-76
2022/07/06 00:47:40;;;;;;;12.45;4.78;;;;;;;11.25;78.58;102421.63;5068839;28;20039;-76
2022/07/06 00:50:14;;;;;;;13.95;4.40;;;;;;;11.25;78.78;102413.53;5071980;28;20426;-76
2022/07/06 00:52:41;;;;;;;13.07;4.68;;;;;;;11.21;78.81;102412.81;5060450;28;20055;-77
2022/07/06 00:55:06;;;;;;;17.70;5.28;;;;;;;11.21;78.96;102411.94;5070848;28;20025;-77
2022/07/06 00:57:32;;;;;;;17.10;5.85;;;;;;;11.21;79.16;102418.19;5071429;28;20020;-76
2022/07/06 00:59:58;;;;;;;16.42;5.63;;;;;;;11.25;79.33;102418.94;5069727;28;20032;-76
2022/07/06 01:02:23;;;;;;;17.83;5.30;;;;;;;11.27;78.59;102415.19;5065863;28;20028;-77
2022/07/06 01:04:48;;;;;;;19.00;5.43;;;;;;;11.29;78.90;102410.63;5070897;28;20391;-76
2022/07/06 01:07:14;;;;;;;17.30;5.85;;;;;;;11.27;78.84;102404.41;5071617;28;20035;-76
2022/07/06 01:09:39;;;;;;;15.98;5.13;;;;;;;11.24;78.99;102404.59;5061821;28;20020;-76
2022/07/06 01:12:05;;;;;;;17.17;5.20;;;;;;;11.23;78.84;102412.72;5070405;28;20055;-77
2022/07/06 01:14:31;;;;;;;15.13;5.65;;;;;;;11.19;78.83;102403.97;5070802;28;20097;-76
2022/07/06 01:16:57;;;;;;;13.73;4.60;;;;;;;11.15;78.64;102403.22;5070494;28;20123;-76
2022/07/06 01:19:22;;;;;;;14.43;4.93;;;;;;;11.10;78.79;102402.59;5066906;28;20111;-77
2022/07/06 01:21:48;;;;;;;15.23;5.30;;;;;;;11.11;78.69;102415.13;5070494;28;20472;-77
2022/07/06 01:24:13;;;;;;;15.68;5.13;;;;;;;11.13;78.91;102404.28;5063841;28;20029;-76
2022/07/06 01:26:38;;;;;;;14.93;4.90;;;;;;;11.11;78.79;102416.91;5067707;28;20150;-76
2022/07/06 01:29:04;;;;;;;15.00;4.95;;;;;;;11.06;78.95;102408.22;5068421;28;20032;-76
2022/07/06 01:31:29;;;;;;;16.00;5.30;;;;;;;11.05;78.98;102410.03;5069941;28;20036;-76
2022/07/06 01:33:56;;;;;;;14.68;5.13;;;;;;;11.03;78.57;102409.25;5071796;28;20025;-77
2022/07/06 01:36:22;;;;;;;15.55;5.60;;;;;;;11.00;78.81;102412.09;5068137;28;20044;-77
2022/07/06 01:38:49;;;;;;;16.75;4.50;;;;;;;10.93;79.15;102407.97;5069293;28;20032;-76
2022/07/06 01:41:14;;;;;;;13.70;5.35;;;;;;;10.88;79.35;102407.31;5071158;28;20028;-76
2022/07/06 01:43:40;;;;;;;16.05;5.38;;;;;;;10.90;79.56;102410.81;5071498;28;20035;-76
2022/07/06 01:46:05;;;;;;;15.90;5.82;;;;;;;10.86;79.45;102417.28;5068973;28;20020;-76
2022/07/06 01:48:30;;;;;;;16.63;5.80;;;;;;;10.83;79.86;102412.91;5068107;28;20024;-76
2022/07/06 01:50:56;;;;;;;16.67;5.60;;;;;;;10.89;79.95;102406.38;5070055;28;20020;-77
2022/07/06 01:53:21;;;;;;;19.05;6.05;;;;;;;10.90;79.83;102405.44;5069546;28;20032;-77
2022/07/06 01:55:46;;;;;;;18.15;6.72;;;;;;;10.92;79.57;102406.22;5071384;28;20036;-77
2022/07/06 01:58:12;;;;;;;16.38;5.95;;;;;;;10.93;79.33;102399.91;5065213;28;20322;-77
2022/07/06 02:00:37;;;;;;;21.80;6.03;;;;;;;10.90;79.85;102405.44;5063817;28;20056;-77
2022/07/06 02:03:02;;;;;;;15.52;5.40;;;;;;;10.87;79.47;102402.91;5069624;28;20028;-76
2022/07/06 02:05:27;;;;;;;15.32;5.60;;;;;;;10.83;79.42;102405.75;5070377;28;20028;-76
2022/07/06 02:07:53;;;;;;;18.70;5.75;;;;;;;10.79;79.80;102406.84;5069173;28;20040;-76
2022/07/06 02:10:18;;;;;;;15.75;5.88;;;;;;;10.79;80.16;102408.63;5069023;28;20067;-76
2022/07/06 02:12:43;;;;;;;19.17;6.63;;;;;;;10.76;80.30;102411.47;5069930;28;20048;-76
2022/07/06 02:15:09;;;;;;;17.08;6.07;;;;;;;10.74;80.58;102410.69;5056209;28;20016;-76
2022/07/06 02:17:34;;;;;;;18.95;6.10;;;;;;;10.77;80.73;102403.34;5068040;28;20035;-77
2022/07/06 02:19:59;;;;;;;18.40;6.75;;;;;;;10.77;80.30;102411.41;5069626;28;20032;-77
2022/07/06 02:22:25;;;;;;;19.35;6.53;;;;;;;10.77;80.32;102406.03;5068860;28;20410;-76
2022/07/06 02:24:50;;;;;;;17.40;6.55;;;;;;;10.74;80.54;102411.56;5070752;28;20153;-76
2022/07/06 02:27:15;;;;;;;17.90;6.05;;;;;;;10.74;80.57;102403.47;5068173;28;20386;-76
2022/07/06 02:29:40;;;;;;;18.45;6.32;;;;;;;10.72;80.61;102408.06;5069019;28;20039;-76
2022/07/06 02:32:06;;;;;;;18.15;6.43;;;;;;;10.71;80.89;102409.00;5067286;28;20031;-77
2022/07/06 02:34:31;;;;;;;18.27;6.55;;;;;;;10.73;80.67;102407.16;5068862;28;20070;-77
2022/07/06 02:36:57;;;;;;;17.60;6.63;;;;;;;10.74;80.71;102408.88;5069423;28;20028;-77
2022/07/06 02:39:22;;;;;;;19.75;6.97;;;;;;;10.69;80.67;102400.16;5069875;28;20343;-76
2022/07/06 02:41:47;;;;;;;17.48;6.47;;;;;;;10.69;80.54;102405.53;5068928;28;20036;-76
2022/07/06 02:44:12;;;;;;;19.83;6.07;;;;;;;10.69;80.89;102400.16;5070420;28;20012;-76
2022/07/06 02:46:38;;;;;;;21.25;7.97;;;;;;;10.64;80.75;102405.78;5068548;28;20151;-76
2022/07/06 02:49:03;;;;;;;18.88;6.78;;;;;;;10.61;80.66;102399.66;5066377;28;20474;-76
2022/07/06 02:51:28;;;;;;;20.23;7.63;;;;;;;10.57;81.20;102406.13;5071038;28;20040;-76
2022/07/06 02:53:53;;;;;;;19.45;6.60;;;;;;;10.52;81.32;102403.66;5067586;28;20028;-76
2022/07/06 02:56:19;;;;;;;18.23;6.50;;;;;;;10.51;80.80;102417.19;5069918;28;20466;-76
2022/07/06 02:58:44;;;;;;;19.15;7.25;;;;;;;10.51;81.06;102414.50;5065952;28;20033;-76
2022/07/06 03:01:09;;;;;;;19.35;6.55;;;;;;;10.49;80.88;102417.25;5069222;28;20029;-77
2022/07/06 03:03:34;;;;;;;21.98;6.95;;;;;;;10.45;81.51;102419.22;5069081;28;20025;-77
2022/07/06 03:06:00;;;;;;;17.48;5.82;;;;;;;10.46;81.56;102414.72;5067024;28;20040;-77
2022/07/06 03:08:25;;;;;;;18.90;6.07;;;;;;;10.48;81.49;102402.94;5065540;28;20166;-77
2022/07/06 03:10:50;;;;;;;20.55;6.55;;;;;;;10.49;81.02;102406.50;5068168;28;20032;-77
2022/07/06 03:13:16;;;;;;;17.02;6.50;;;;;;;10.47;81.04;102411.94;5067525;28;20020;-77
2022/07/06 03:15:41;;;;;;;19.58;6.40;;;;;;;10.43;81.35;102410.34;5069435;28;20111;-77
2022/07/06 03:18:06;;;;;;;20.67;6.15;;;;;;;10.43;81.91;102415.72;5068192;28;20055;-77
2022/07/06 03:20:31;;;;;;;16.90;6.43;;;;;;;10.46;81.99;102420.09;5071266;28;20388;-77
2022/07/06 03:22:57;;;;;;;16.30;6.03;;;;;;;10.45;81.26;102423.72;5068254;28;20047;-77
2022/07/06 03:25:22;;;;;;;17.83;5.93;;;;;;;10.44;81.87;102427.34;5067943;28;20464;-77
2022/07/06 03:27:47;;;;;;;17.35;6.55;;;;;;;10.41;81.84;102425.69;5068181;28;20047;-77
2022/07/06 03:30:13;;;;;;;18.52;6.18;;;;;;;10.40;82.00;102415.88;5069161;28;20056;-77
2022/07/06 03:32:39;;;;;;;19.05;6.72;;;;;;;10.40;82.18;102421.25;5060275;28;20111;-77
2022/07/06 03:35:05;;;;;;;19.85;6.50;;;;;;;10.41;82.21;102414.94;5066231;28;20112;-77
2022/07/06 03:37:30;;;;;;;16.77;5.75;;;;;;;10.38;82.46;102415.09;5068340;28;20023;-77
2022/07/06 03:39:55;;;;;;;15.25;5.93;;;;;;;10.35;81.82;102409.81;5067329;28;20036;-77
2022/07/06 03:42:20;;;;;;;18.70;5.93;;;;;;;10.35;82.46;102415.19;5084777;28;20606;-77
2022/07/06 03:44:46;;;;;;;17.77;6.55;;;;;;;10.37;81.98;102415.16;5065835;28;20043;-77
2022/07/06 03:47:14;;;;;;;15.57;5.40;;;;;;;10.34;82.55;102416.16;5071388;28;20026;-76
2022/07/06 03:49:39;;;;;;;16.63;6.07;;;;;;;10.32;82.72;102412.63;5070917;28;20039;-76
2022/07/06 03:52:04;;;;;;;16.77;6.28;;;;;;;10.33;82.80;102419.75;5073458;28;20016;-76
2022/07/06 03:54:30;;;;;;;17.35;6.22;;;;;;;10.37;83.23;102420.53;5076293;28;20040;-76
2022/07/06 03:56:56;;;;;;;15.75;5.93;;;;;;;10.39;82.83;102419.50;5074809;28;20052;-77
2022/07/06 03:59:21;;;;;;;17.05;6.95;;;;;;;10.43;83.07;102415.72;5073677;28;20028;-77
2022/07/06 04:01:46;;;;;;;17.70;6.72;;;;;;;10.49;83.12;102414.56;5073436;28;20025;-77
2022/07/06 04:04:12;;;;;;;17.60;6.50;;;;;;;10.51;83.14;102411.81;5073661;28;20039;-77
2022/07/06 04:06:38;;;;;;;18.15;6.22;;;;;;;10.53;82.81;102410.78;5065625;28;20091;-77
2022/07/06 04:09:03;;;;;;;16.58;6.03;;;;;;;10.54;83.17;102409.84;5071961;28;20574;-77
2022/07/06 04:11:29;;;;;;;19.90;6.55;;;;;;;10.54;82.64;102412.53;5074681;28;20120;-77
2022/07/06 04:13:54;;;;;;;19.02;6.78;;;;;;;10.54;83.14;102412.53;5074299;28;20058;-77
2022/07/06 04:16:20;;;;;;;21.25;6.97;;;;;;;10.60;82.94;102414.03;5075356;28;20024;-77
2022/07/06 04:18:46;;;;;;;20.05;7.57;;;;;;;10.63;83.48;102405.81;5072081;28;20048;-76
2022/07/06 04:21:11;;;;;;;18.88;7.50;;;;;;;10.65;82.78;102409.31;5082109;28;20524;-76
2022/07/06 04:23:37;;;;;;;22.55;7.88;;;;;;;10.68;82.87;102402.94;5073395;28;20078;-77
2022/07/06 04:26:02;;;;;;;16.10;5.65;;;;;;;10.68;83.40;102403.78;5075255;28;21366;-77
2022/07/06 04:28:27;;;;;;;17.40;6.35;;;;;;;10.73;83.38;102396.38;5074553;28;20114;-77
2022/07/06 04:30:53;;;;;;;22.67;7.65;;;;;;;10.77;83.27;102406.03;5073858;28;20020;-77
2022/07/06 04:33:18;;;;;;;16.88;5.97;;;;;;;10.79;83.63;102397.88;5075003;28;20054;-77
2022/07/06 04:35:43;;;;;;;20.88;6.25;;;;;;;10.81;83.20;102394.16;5073572;28;20040;-77
2022/07/06 04:38:09;;;;;;;16.55;6.60;;;;;;;10.87;83.09;102398.38;5073915;28;20032;-77
2022/07/06 04:40:34;;;;;;;20.85;7.85;;;;;;;10.92;83.56;102400.84;5073562;28;20024;-77
2022/07/06 04:42:59;;;;;;;17.67;6.80;;;;;;;10.95;83.58;102397.97;5074478;28;20116;-77
2022/07/06 04:45:25;;;;;;;19.02;7.03;;;;;;;11.00;83.61;102398.63;5072610;28;20044;-77
2022/07/06 04:47:50;;;;;;;19.88;6.63;;;;;;;11.04;84.03;102393.97;5074775;28;20448;-77
2022/07/06 04:50:15;;;;;;;18.15;6.70;;;;;;;11.09;83.53;102398.16;5077259;28;20047;-76
2022/07/06 04:52:41;;;;;;;17.25;6.38;;;;;;;11.14;84.20;102396.13;5072456;28;20063;-77
2022/07/06 04:55:08;;;;;;;18.58;6.88;;;;;;;11.21;83.91;102407.44;5073642;28;20358;-77
2022/07/06 04:57:34;;;;;;;19.05;6.85;;;;;;;11.30;84.02;102398.91;5056353;28;20075;-76
2022/07/06 04:59:59;;;;;;;17.45;7.30;;;;;;;11.36;83.83;102400.38;5068722;28;20033;-77
2022/07/06 05:02:25;;;;;;;22.60;7.93;;;;;;;11.41;84.09;102390.25;5068391;28;20020;-77
2022/07/06 05:04:50;;;;;;;18.83;6.45;;;;;;;11.46;83.74;102398.94;5068699;28;20364;-77
2022/07/06 05:07:16;;;;;;;18.67;6.65;;;;;;;11.54;84.25;102399.44;5069642;28;20032;-77
2022/07/06 05:09:41;;;;;;;18.10;6.30;;;;;;;11.63;83.81;102402.59;5069643;28;20342;-77
2022/07/06 05:12:07;;;;;;;19.27;6.90;;;;;;;11.70;83.38;102410.28;5068995;28;20090;-77
2022/07/06 05:14:33;;;;;;;20.23;6.82;;;;;;;11.80;84.92;102410.66;5069323;28;20032;-77
2022/07/06 05:16:58;;;;;;;16.73;6.15;;;;;;;11.88;84.63;102408.41;5071935;28;20044;-77
2022/07/06 05:19:23;;;;;;;20.83;6.18;;;;;;;11.98;84.37;102416.03;5061315;28;20392;-77
2022/07/06 05:21:49;;;;;;;16.90;5.68;;;;;;;12.06;82.80;102413.78;5068005;28;20058;-77
2022/07/06 05:24:15;;;;;;;17.10;5.68;;;;;;;12.18;84.07;102417.63;5060684;28;20468;-79
2022/07/06 05:26:41;;;;;;;16.05;5.50;;;;;;;12.30;82.93;102425.06;5071001;28;20068;-78
2022/07/06 05:29:06;;;;;;;15.02;6.03;;;;;;;12.39;82.55;102419.13;5071632;28;20107;-78
2022/07/06 05:31:31;;;;;;;15.90;5.57;;;;;;;12.50;81.27;102420.38;5070303;28;20155;-77
2022/07/06 05:33:56;;;;;;;15.48;5.50;;;;;;;12.59;81.07;102417.13;5069984;28;20024;-77
2022/07/06 05:36:22;;;;;;;10.90;3.78;;;;;;;12.65;76.49;102418.63;5086538;28;20027;-78
2022/07/06 05:38:47;;;;;;;15.40;4.82;;;;;;;12.77;79.06;102423.34;5069591;28;20028;-76
2022/07/06 05:41:12;;;;;;;16.27;5.32;;;;;;;12.84;79.46;102418.44;5063950;28;20552;-76
2022/07/06 05:43:37;;;;;;;13.02;4.07;;;;;;;12.91;76.75;102425.22;5069852;28;20032;-76
2022/07/06 05:46:03;;;;;;;14.90;5.32;;;;;;;13.02;79.70;102416.50;5071913;28;20032;-76
2022/07/06 05:51:13;;;;;;;17.50;5.53;;;;;;;13.21;80.03;102422.56;5068985;28;20047;-76
2022/07/06 05:53:38;;;;;;;15.55;5.15;;;;;;;13.26;76.92;102425.84;5069935;28;20099;-76
2022/07/06 05:56:04;;;;;;;19.67;6.40;;;;;;;13.28;73.11;102426.63;5068345;28;20029;-76
2022/07/06 05:58:29;;;;;;;19.88;7.00;;;;;;;13.37;75.25;102429.78;5071168;28;20032;-76
2022/07/06 06:00:55;;;;;;;17.80;5.57;;;;;;;13.47;77.46;102425.56;5066118;28;20021;-76
2022/07/06 06:03:20;;;;;;;16.85;5.38;;;;;;;13.56;78.69;102433.09;5069395;28;20024;-76
2022/07/06 06:05:45;;;;;;;17.67;5.93;;;;;;;13.63;78.64;102429.06;5070642;28;20032;-76
2022/07/06 06:08:10;;;;;;;14.65;5.03;;;;;;;13.71;79.11;102434.00;5071673;28;20029;-76
2022/07/06 06:10:36;;;;;;;14.23;5.07;;;;;;;13.79;78.31;102436.22;5069555;28;20091;-77
2022/07/06 06:13:01;;;;;;;14.05;4.47;;;;;;;13.87;77.37;102438.47;5069033;28;20048;-77
2022/07/06 06:15:26;;;;;;;13.98;4.30;;;;;;;13.92;77.40;102430.94;5070475;28;20166;-77
2022/07/06 06:17:52;;;;;;;13.35;4.00;;;;;;;14.00;77.52;102431.31;5071379;28;20112;-77
2022/07/06 06:20:17;;;;;;;11.20;4.18;;;;;;;14.07;77.20;102431.78;5075166;28;20460;-77
2022/07/06 06:22:51;;;;;;;15.85;4.40;;;;;;;14.12;78.06;102426.97;5073291;28;20158;-77
2022/07/06 06:25:19;;;;;;;10.70;3.40;;;;;;;14.17;75.82;102432.94;5065815;28;20039;-77
2022/07/06 06:27:45;;;;;;;8.75;3.22;;;;;;;14.21;75.12;102434.50;5066574;28;20440;-78
2022/07/06 06:30:11;;;;;;;11.35;3.63;;;;;;;14.25;74.29;102432.50;5070590;28;20020;-78
2022/07/06 06:32:36;;;;;;;10.90;3.90;;;;;;;14.30;76.75;102433.91;5069848;28;20043;-77
2022/07/06 06:35:02;;;;;;;10.68;2.97;;;;;;;14.32;75.59;102440.09;5050721;28;20028;-78
2022/07/06 06:37:28;;;;;;;13.88;4.18;;;;;;;14.37;77.73;102438.94;5056163;28;20028;-77
2022/07/06 06:39:54;;;;;;;17.77;4.32;;;;;;;14.40;78.48;102441.44;5069900;28;20197;-78
2022/07/06 06:42:19;;;;;;;14.07;3.70;;;;;;;14.40;79.55;102446.88;5057514;28;20033;-77
2022/07/06 06:44:44;;;;;;;14.40;4.35;;;;;;;14.39;77.95;102445.13;5070507;28;20044;-77
2022/07/06 06:47:09;;;;;;;14.48;3.92;;;;;;;14.38;76.99;102441.56;5071195;28;20029;-78
2022/07/06 06:49:35;;;;;;;13.65;3.92;;;;;;;14.38;78.78;102446.06;5069904;28;20020;-78
2022/07/06 06:52:00;;;;;;;14.98;4.63;;;;;;;14.40;79.21;102446.88;5087253;28;20038;-78
2022/07/06 06:54:25;;;;;;;13.77;4.38;;;;;;;14.42;76.56;102456.63;5090138;28;20131;-78
2022/07/06 06:56:51;;;;;;;15.98;5.20;;;;;;;14.44;76.09;102445.72;5085070;28;20564;-78
2022/07/06 06:59:16;;;;;;;15.50;5.00;;;;;;;14.45;77.74;102447.41;5068492;28;20024;-78
2022/07/06 07:01:41;;;;;;;13.45;3.55;;;;;;;14.47;75.11;102442.78;5070747;28;20039;-77
2022/07/06 07:04:07;;;;;;;9.30;3.13;;;;;;;14.55;75.17;102453.97;5068363;28;20090;-77
2022/07/06 07:06:32;;;;;;;8.73;3.35;;;;;;;14.59;72.28;102450.09;5066821;28;20054;-77
2022/07/06 07:08:57;;;;;;;12.70;3.22;;;;;;;14.69;73.32;102450.41;5086537;28;20029;-77
2022/07/06 07:11:23;;;;;;;13.45;3.17;;;;;;;14.78;74.76;102443.53;5068089;28;20778;-77
2022/07/06 07:13:48;;;;;;;6.68;2.42;;;;;;;14.84;73.83;102453.94;5069226;28;20040;-78
2022/07/06 07:16:13;;;;;;;5.32;1.98;;;;;;;14.91;72.68;102449.88;5069154;28;20418;-78
2022/07/06 07:18:39;;;;;;;6.90;2.47;;;;;;;14.95;71.98;102450.53;5060398;28;20036;-77
2022/07/06 07:21:04;;;;;;;3.55;1.73;;;;;;;14.98;71.91;102453.06;5068567;28;20495;-77
2022/07/06 07:23:30;;;;;;;4.03;1.60;;;;;;;15.03;68.67;102456.31;5054470;28;20040;-77
2022/07/06 07:25:55;;;;;;;6.90;1.90;;;;;;;15.11;70.92;102453.97;5054950;28;20013;-77
2022/07/06 07:28:20;;;;;;;7.70;1.98;;;;;;;15.18;70.51;102451.69;5055513;28;20024;-77
2022/07/06 07:30:45;;;;;;;4.85;1.67;;;;;;;15.23;69.94;102454.97;5069446;28;20074;-77
2022/07/06 07:33:11;;;;;;;5.20;1.75;;;;;;;15.27;69.08;102456.53;5069453;28;20145;-77
2022/07/06 07:35:36;;;;;;;6.18;1.98;;;;;;;15.33;67.39;102452.50;5068278;28;20077;-77
2022/07/06 07:38:01;;;;;;;9.00;1.52;;;;;;;15.38;66.88;102455.78;5063099;28;20504;-77
2022/07/06 07:40:27;;;;;;;4.70;1.83;;;;;;;15.45;67.10;102457.09;5055074;28;20154;-77
2022/07/06 07:42:52;;;;;;;10.13;2.05;;;;;;;15.49;66.48;102457.75;5066885;28;20039;-78
2022/07/06 07:45:18;;;;;;;3.78;1.52;;;;;;;15.57;68.21;102458.09;5070706;28;20031;-78
2022/07/06 07:47:43;;;;;;;3.50;1.20;;;;;;;15.57;65.17;102449.97;5070614;28;20036;-77
2022/07/06 07:50:09;;;;;;;5.75;1.25;;;;;;;15.63;61.77;102451.38;5070675;28;20020;-77
2022/07/06 07:52:34;;;;;;;1.98;1.40;;;;;;;15.68;62.22;102452.81;5075267;28;20388;-77
2022/07/06 07:55:00;;;;;;;3.63;1.50;;;;;;;15.75;64.59;102450.50;5082750;28;20146;-77
2022/07/06 07:57:25;;;;;;;3.03;1.48;;;;;;;15.79;62.22;102448.50;5081844;28;20447;-77
2022/07/06 07:59:51;;;;;;;2.58;1.20;;;;;;;15.87;62.77;102454.25;5064833;28;20135;-77
2022/07/06 08:02:16;;;;;;;2.42;1.23;;;;;;;15.91;62.35;102444.91;5069307;28;20483;-77
2022/07/06 08:04:41;;;;;;;2.78;1.40;;;;;;;15.97;63.05;102444.47;5071953;28;20028;-78
2022/07/06 08:07:07;;;;;;;3.45;1.33;;;;;;;16.01;60.68;102437.88;5084524;28;20032;-78
2022/07/06 08:09:32;;;;;;;4.57;1.20;;;;;;;16.07;62.54;102434.72;5076289;28;20380;-78
2022/07/06 08:11:58;;;;;;;4.68;1.15;;;;;;;16.12;62.25;102436.22;5064629;28;20120;-78
2022/07/06 08:14:24;;;;;;;3.88;1.27;;;;;;;16.15;61.73;102442.31;5068322;28;20059;-78
2022/07/06 08:16:49;;;;;;;4.57;1.27;;;;;;;16.19;61.25;102441.13;5067337;28;20040;-78
2022/07/06 08:19:15;;;;;;;2.38;1.45;;;;;;;16.23;60.74;102434.47;5065992;28;20025;-77
2022/07/06 08:21:40;;;;;;;4.30;1.33;;;;;;;16.25;60.99;102437.97;5068745;28;20158;-78
2022/07/06 08:24:06;;;;;;;7.70;1.80;;;;;;;16.32;61.11;102438.38;5067240;28;20100;-77
2022/07/06 08:26:31;;;;;;;4.53;1.63;;;;;;;16.38;61.47;102437.06;5061934;28;20430;-77
2022/07/06 08:28:57;;;;;;;6.25;1.77;;;;;;;16.46;61.04;102434.66;5068321;28;20115;-77
2022/07/06 08:31:22;;;;;;;4.03;1.50;;;;;;;16.54;61.37;102440.38;5066495;28;20028;-77
2022/07/06 08:33:48;;;;;;;2.97;1.15;;;;;;;16.63;62.42;102430.69;5072244;28;20170;-77
2022/07/06 08:36:14;;;;;;;6.25;1.27;;;;;;;16.68;59.23;102428.53;5071495;28;20512;-79
2022/07/06 08:38:39;;;;;;;3.40;1.35;;;;;;;16.71;59.76;102435.56;5067648;28;20036;-77
2022/07/06 08:41:06;;;;;;;4.93;1.40;;;;;;;16.71;59.76;102436.44;5072756;28;20193;-77
2022/07/06 08:43:32;;;;;;;3.88;1.40;;;;;;;16.74;58.71;102428.06;5070073;28;20424;-77
2022/07/06 08:45:58;;;;;;;4.90;1.65;;;;;;;16.85;59.84;102431.81;5069700;28;20020;-77
2022/07/06 08:48:24;;;;;;;3.05;1.42;;;;;;;16.96;62.11;102433.78;5067719;28;20365;-76
2022/07/06 08:50:50;;;;;;;2.70;1.30;;;;;;;16.94;61.35;102429.31;5078921;28;20497;-77
2022/07/06 08:53:17;;;;;;;7.60;1.88;;;;;;;16.93;57.78;102427.56;5072653;28;20024;-77
2022/07/06 08:55:42;;;;;;;6.57;1.70;;;;;;;16.90;58.45;102427.81;5068608;28;20119;-77
2022/07/06 08:58:08;;;;;;;8.10;2.10;;;;;;;16.86;59.06;102426.28;5069916;28;20436;-77
2022/07/06 09:00:34;;;;;;;4.60;1.88;;;;;;;16.83;59.25;102423.78;5069241;28;20060;-77
2022/07/06 09:03:00;;;;;;;7.72;2.65;;;;;;;16.83;60.72;102422.94;5065829;28;20515;-76
2022/07/06 09:05:26;;;;;;;4.43;1.70;;;;;;;16.89;61.65;102423.34;5068347;28;20591;-77
2022/07/06 09:07:52;;;;;;;4.93;1.50;;;;;;;16.97;61.58;102427.34;5073792;28;20190;-77
2022/07/06 09:10:20;;;;;;;5.07;1.45;;;;;;;17.05;60.92;102425.78;5075781;28;20369;-77
2022/07/06 09:12:46;;;;;;;4.03;1.35;;;;;;;17.18;60.45;102414.00;5089466;28;20066;-77
2022/07/06 09:15:11;;;;;;;4.63;1.70;;;;;;;17.24;58.47;102427.09;5091715;28;20036;-77
2022/07/06 09:17:42;;;;;;;4.40;1.58;;;;;;;17.32;59.90;102421.97;5088067;28;20488;-77
2022/07/06 09:20:11;;;;;;;3.08;1.65;;;;;;;17.38;58.38;102421.47;5091370;28;20089;-78
2022/07/06 09:22:37;;;;;;;1.73;1.30;;;;;;;17.41;57.04;102417.63;5090161;28;20468;-78
2022/07/06 09:25:12;;;;;;;4.63;1.70;;;;;;;17.47;59.10;102419.91;5084197;28;20066;-78
2022/07/06 09:27:39;;;;;;;5.35;1.52;;;;;;;17.50;56.28;102424.22;5068400;28;20063;-77
2022/07/06 09:30:07;;;;;;;3.55;1.80;;;;;;;17.54;56.25;102425.72;5075712;28;20020;-78
2022/07/06 09:32:44;;;;;;;4.63;1.58;;;;;;;17.51;55.36;102431.38;5062637;28;20028;-78
2022/07/06 09:35:20;;;;;;;4.13;1.27;;;;;;;17.52;55.63;102435.84;5073749;28;20506;-78
2022/07/06 09:37:48;;;;;;;9.27;1.95;;;;;;;17.53;55.95;102430.28;5069827;28;20032;-78
2022/07/06 09:40:18;;;;;;;3.33;1.40;;;;;;;17.64;57.40;102424.88;5077300;28;20055;-78
2022/07/06 09:42:44;;;;;;;2.65;1.58;;;;;;;17.70;55.72;102426.25;5068976;28;20099;-78
2022/07/06 09:45:09;;;;;;;7.47;1.92;;;;;;;17.69;54.13;102429.97;5068223;28;20119;-77
2022/07/06 09:47:36;;;;;;;4.28;1.65;;;;;;;17.67;53.84;102425.63;5069075;28;20094;-77
2022/07/06 09:50:01;;;;;;;4.30;1.50;;;;;;;17.70;54.61;102430.81;5068231;28;20032;-77
2022/07/06 09:52:26;;;;;;;5.85;1.40;;;;;;;17.70;56.09;102431.69;5081077;28;20078;-77
2022/07/06 09:54:52;;;;;;;6.78;1.77;;;;;;;17.72;56.16;102426.13;5069228;28;20036;-77
2022/07/06 09:57:17;;;;;;;3.40;1.55;;;;;;;17.73;54.81;102431.47;5076221;28;20111;-78
2022/07/06 09:59:49;;;;;;;3.33;1.73;;;;;;;17.74;55.97;102432.31;5087551;28;20813;-78
2022/07/06 10:02:16;;;;;;;3.33;1.30;;;;;;;17.72;53.44;102429.72;5069275;28;20475;-78
2022/07/06 10:04:44;;;;;;;8.98;1.63;;;;;;;17.70;53.54;102437.13;5067732;28;20035;-78
2022/07/06 10:07:11;;;;;;;3.85;1.38;;;;;;;17.76;54.35;102433.03;5065955;28;20036;-78
2022/07/06 10:09:37;;;;;;;4.15;1.60;;;;;;;17.78;53.48;102440.09;5063207;28;20484;-77
2022/07/06 10:12:05;;;;;;;1.55;1.30;;;;;;;17.83;55.21;102434.28;5067575;28;20041;-77
2022/07/06 10:14:33;;;;;;;4.75;1.98;;;;;;;17.93;58.22;102439.91;5070106;28;20032;-77
2022/07/06 10:17:01;;;;;;;2.67;1.38;;;;;;;17.99;55.22;102439.41;5068712;28;20095;-77
2022/07/06 10:19:29;;;;;;;2.60;1.20;;;;;;;18.07;57.20;102433.34;5071345;28;20414;-77
2022/07/06 10:21:58;;;;;;;5.00;1.73;;;;;;;18.12;56.60;102434.72;5077928;28;20021;-77
2022/07/06 10:24:24;;;;;;;4.47;1.48;;;;;;;18.15;54.59;102437.19;5062711;28;20039;-77
2022/07/06 10:26:50;;;;;;;6.15;1.70;;;;;;;18.19;58.34;102437.81;5056052;28;20124;-77
2022/07/06 10:29:16;;;;;;;4.50;1.70;;;;;;;18.16;55.52;102435.34;5066823;28;20021;-77
2022/07/06 10:31:45;;;;;;;6.45;1.88;;;;;;;18.16;53.19;102433.50;5063952;28;20074;-78
2022/07/06 10:34:13;;;;;;;9.80;2.42;;;;;;;18.20;54.25;102439.56;5067563;28;20033;-78
2022/07/06 10:36:41;;;;;;;2.70;1.33;;;;;;;18.25;55.02;102440.03;5064384;28;20555;-78
2022/07/06 10:41:50;;;;;;;6.25;1.55;;;;;;;18.35;50.77;102437.47;5086730;28;20035;-78
2022/07/06 10:44:18;;;;;;;8.13;1.67;;;;;;;18.40;52.17;102437.06;5073666;28;20028;-78
2022/07/06 10:46:58;;;;;;;5.93;1.70;;;;;;;18.46;51.93;102433.84;5059209;28;20025;-78
2022/07/06 10:49:24;;;;;;;5.25;1.35;;;;;;;18.48;52.17;102442.78;5068505;28;20028;-77
2022/07/06 10:51:50;;;;;;;4.65;1.45;;;;;;;18.53;53.06;102443.25;5073754;28;20479;-78
2022/07/06 10:54:18;;;;;;;3.65;0.93;;;;;;;18.54;52.73;102434.09;5067682;28;20028;-78
2022/07/06 10:56:50;;;;;;;2.58;1.63;;;;;;;18.54;51.77;102435.94;5068367;28;20344;-78
2022/07/06 10:59:18;;;;;;;8.32;1.70;;;;;;;18.57;53.74;102435.72;5067824;28;20020;-78
2022/07/06 11:02:15;;;;;;;3.50;1.67;;;;;;;18.59;52.18;102437.28;5066939;28;20024;-78
2022/07/06 11:04:43;;;;;;;4.63;1.58;;;;;;;18.63;52.12;102427.03;5066456;28;20040;-78
2022/07/06 11:07:11;;;;;;;6.97;1.75;;;;;;;18.67;52.47;102423.91;5067288;28;20090;-78
2022/07/06 11:09:47;;;;;;;6.03;1.65;;;;;;;18.72;53.30;102428.97;5070372;28;20059;-78
2022/07/06 11:12:16;;;;;;;4.18;1.13;;;;;;;18.73;51.04;102419.81;5067530;28;20044;-78
2022/07/06 11:14:42;;;;;;;4.32;1.42;;;;;;;18.75;53.85;102419.69;5071752;28;20134;-78
2022/07/06 11:17:09;;;;;;;6.75;1.85;;;;;;;18.78;51.43;102427.59;5087289;28;20103;-78
2022/07/06 11:19:35;;;;;;;7.10;1.70;;;;;;;18.71;51.13;102426.38;5068586;28;20436;-78